Time;durP1;ratioP1;P1;durP2;ratioP2;P2;SDS_P1;SDS_P2;PMS_P1;PMS_P2;Temp;Humidity;BMP_temperature;BMP_pressure;BME280_temperature;BME280_humidity;BME280_pressure;Samples;Min_cycle;Max_cycle;Signal;HPM_P1;HPM_P2
2023/04/29 00:00:21;;;;;;;25.47;19.70;;;;;;;;;;5065954;28;20185;-54
2023/04/29 00:02:47;;;;;;;29.13;20.70;;;;;;;;;;5067196;28;20212;-54
2023/04/29 00:05:13;;;;;;;24.23;19.83;;;;;;;;;;5068535;28;20191;-54
2023/04/29 00:07:39;;;;;;;26.40;19.07;;;;;;;;;;5065862;28;20178;-55
2023/04/29 00:10:06;;;;;;;28.57;20.93;;;;;;;;;;5069286;28;20625;-55
2023/04/29 00:12:32;;;;;;;29.07;20.30;;;;;;;;;;5067234;28;20205;-55
2023/04/29 00:14:59;;;;;;;26.43;19.90;;;;;;;;;;5068834;28;20558;-55
2023/04/29 00:17:25;;;;;;;25.77;21.40;;;;;;;;;;5066703;28;20181;-56
2023/04/29 00:19:52;;;;;;;25.30;20.90;;;;;;;;;;5067472;28;20189;-55
2023/04/29 00:22:18;;;;;;;24.83;18.50;;;;;;;;;;5068584;28;20295;-55
2023/04/29 00:24:44;;;;;;;28.27;20.23;;;;;;;;;;5068993;28;20695;-56
2023/04/29 00:27:10;;;;;;;27.87;20.63;;;;;;;;;;5066741;28;20712;-55
2023/04/29 00:29:37;;;;;;;27.23;20.37;;;;;;;;;;5067583;28;20207;-55
2023/04/29 00:32:03;;;;;;;28.97;21.23;;;;;;;;;;5066472;28;20188;-56
2023/04/29 00:34:29;;;;;;;26.80;20.33;;;;;;;;;;5063424;28;20189;-55
2023/04/29 00:36:56;;;;;;;27.70;21.70;;;;;;;;;;5068198;28;20282;-55
2023/04/29 00:39:22;;;;;;;31.93;21.93;;;;;;;;;;5066099;28;20250;-55
2023/04/29 00:41:48;;;;;;;28.57;21.27;;;;;;;;;;5063220;28;20729;-55
2023/04/29 00:44:14;;;;;;;33.27;23.03;;;;;;;;;;5068508;28;20180;-55
2023/04/29 00:46:40;;;;;;;30.77;20.67;;;;;;;;;;5069873;28;20246;-55
2023/04/29 00:49:07;;;;;;;27.77;21.10;;;;;;;;;;5058131;28;20180;-55
2023/04/29 00:51:35;;;;;;;31.83;23.73;;;;;;;;;;5065345;28;20187;-55
2023/04/29 00:54:01;;;;;;;35.03;22.70;;;;;;;;;;5067391;28;20190;-55
2023/04/29 00:56:29;;;;;;;30.17;21.83;;;;;;;;;;5066771;28;20208;-55
2023/04/29 00:58:56;;;;;;;33.07;22.37;;;;;;;;;;5063554;28;20169;-55
2023/04/29 01:01:23;;;;;;;33.30;23.63;;;;;;;;;;5061153;28;20201;-55
2023/04/29 01:03:50;;;;;;;32.37;23.20;;;;;;;;;;5065824;28;20714;-55
2023/04/29 01:06:34;;;;;;;33.97;24.87;;;;;;;;;;5067476;28;20171;-55
2023/04/29 01:09:19;;;;;;;34.07;24.20;;;;;;;;;;5061729;28;20264;-55
2023/04/29 01:12:05;;;;;;;38.03;25.83;;;;;;;;;;5069037;28;20200;-55
2023/04/29 01:14:33;;;;;;;36.57;24.37;;;;;;;;;;5064339;28;20200;-55
2023/04/29 01:17:01;;;;;;;35.43;23.70;;;;;;;;;;5062346;28;20271;-55
2023/04/29 01:19:27;;;;;;;35.30;25.63;;;;;;;;;;5064605;28;20183;-55
2023/04/29 01:21:53;;;;;;;44.23;28.17;;;;;;;;;;5067381;28;20195;-54
2023/04/29 01:24:19;;;;;;;45.77;29.87;;;;;;;;;;5064855;28;20215;-55
2023/04/29 01:26:55;;;;;;;47.90;28.83;;;;;;;;;;5065462;28;20264;-55
2023/04/29 01:29:27;;;;;;;43.13;28.80;;;;;;;;;;5066920;28;20172;-57
2023/04/29 01:32:07;;;;;;;45.23;29.03;;;;;;;;;;5067427;28;21168;-56
2023/04/29 01:34:36;;;;;;;41.17;29.17;;;;;;;;;;5066414;28;20221;-55
2023/04/29 01:37:06;;;;;;;46.80;28.47;;;;;;;;;;5068189;28;20231;-56
2023/04/29 01:39:37;;;;;;;44.07;27.00;;;;;;;;;;5067228;28;20180;-56
2023/04/29 01:42:14;;;;;;;44.17;28.13;;;;;;;;;;5066244;28;20317;-56
2023/04/29 01:44:41;;;;;;;41.07;27.47;;;;;;;;;;5066510;28;20263;-56
2023/04/29 01:47:10;;;;;;;45.23;27.60;;;;;;;;;;5065531;28;20173;-56
2023/04/29 01:49:36;;;;;;;43.10;27.53;;;;;;;;;;5065732;28;20231;-56
2023/04/29 01:52:02;;;;;;;40.57;26.07;;;;;;;;;;5068714;28;20185;-56
2023/04/29 01:54:28;;;;;;;42.33;26.67;;;;;;;;;;5067510;28;20651;-56
2023/04/29 01:56:54;;;;;;;38.13;26.00;;;;;;;;;;5066668;28;20188;-56
2023/04/29 01:59:21;;;;;;;42.90;26.97;;;;;;;;;;5063678;28;20187;-56
2023/04/29 02:01:47;;;;;;;44.37;26.57;;;;;;;;;;5064091;28;20208;-56
2023/04/29 02:04:13;;;;;;;49.47;27.87;;;;;;;;;;5062772;28;20644;-56
2023/04/29 02:06:39;;;;;;;47.00;27.57;;;;;;;;;;5068885;28;20172;-56
2023/04/29 02:09:05;;;;;;;42.00;25.60;;;;;;;;;;5064309;28;20188;-56
2023/04/29 02:11:32;;;;;;;37.20;24.37;;;;;;;;;;5064959;28;20212;-56
2023/04/29 02:13:58;;;;;;;43.53;26.53;;;;;;;;;;5064205;28;20189;-56
2023/04/29 02:16:24;;;;;;;46.67;26.13;;;;;;;;;;5067455;28;20220;-56
2023/04/29 02:18:50;;;;;;;39.77;25.73;;;;;;;;;;5063179;28;20862;-56
2023/04/29 02:21:16;;;;;;;45.97;26.07;;;;;;;;;;5070669;28;20228;-56
2023/04/29 02:23:42;;;;;;;46.27;26.00;;;;;;;;;;5068837;28;20220;-56
2023/04/29 02:26:09;;;;;;;40.93;25.00;;;;;;;;;;5068507;28;20267;-56
2023/04/29 02:28:35;;;;;;;39.40;24.63;;;;;;;;;;5068451;28;20172;-56
2023/04/29 02:31:02;;;;;;;40.17;24.40;;;;;;;;;;5069711;28;20188;-56
2023/04/29 02:33:28;;;;;;;46.20;25.87;;;;;;;;;;5068202;28;20275;-56
2023/04/29 02:35:54;;;;;;;46.00;26.73;;;;;;;;;;5071749;28;20203;-56
2023/04/29 02:38:20;;;;;;;41.23;24.40;;;;;;;;;;5060405;28;20211;-56
2023/04/29 02:40:47;;;;;;;41.43;26.70;;;;;;;;;;5069816;28;20180;-56
2023/04/29 02:43:13;;;;;;;41.03;25.03;;;;;;;;;;5069339;28;20200;-56
2023/04/29 02:45:39;;;;;;;42.50;24.77;;;;;;;;;;5070003;28;20181;-56
2023/04/29 02:48:05;;;;;;;41.40;24.80;;;;;;;;;;5067437;28;20169;-56
2023/04/29 02:50:32;;;;;;;39.27;24.20;;;;;;;;;;5069939;28;20633;-56
2023/04/29 02:52:58;;;;;;;36.40;23.13;;;;;;;;;;5070830;28;20179;-56
2023/04/29 02:55:24;;;;;;;35.30;23.80;;;;;;;;;;5071048;28;20188;-56
2023/04/29 02:57:50;;;;;;;35.43;23.10;;;;;;;;;;5067673;28;20180;-55
2023/04/29 03:00:16;;;;;;;32.37;21.80;;;;;;;;;;5064130;28;20536;-55
2023/04/29 03:02:42;;;;;;;31.13;22.17;;;;;;;;;;5070428;28;20564;-55
2023/04/29 03:05:08;;;;;;;33.97;21.27;;;;;;;;;;5068422;28;20653;-55
2023/04/29 03:07:34;;;;;;;31.27;21.53;;;;;;;;;;5061540;28;20223;-55
2023/04/29 03:10:01;;;;;;;29.87;21.33;;;;;;;;;;5066185;28;20273;-55
2023/04/29 03:12:27;;;;;;;29.63;20.43;;;;;;;;;;5069097;28;20208;-55
2023/04/29 03:14:53;;;;;;;27.27;20.23;;;;;;;;;;5069531;28;20219;-55
2023/04/29 03:17:19;;;;;;;26.87;20.70;;;;;;;;;;5068232;28;20197;-55
2023/04/29 03:19:45;;;;;;;32.10;21.07;;;;;;;;;;5065698;28;20219;-55
2023/04/29 03:22:11;;;;;;;27.30;19.83;;;;;;;;;;5069947;28;20202;-55
2023/04/29 03:24:37;;;;;;;25.07;19.77;;;;;;;;;;5067051;28;20226;-55
2023/04/29 03:27:04;;;;;;;24.80;18.47;;;;;;;;;;5069574;28;20586;-54
2023/04/29 03:29:30;;;;;;;23.53;19.10;;;;;;;;;;5068071;28;20239;-54
2023/04/29 03:31:56;;;;;;;24.40;19.77;;;;;;;;;;5068762;28;20231;-54
2023/04/29 03:34:23;;;;;;;20.27;16.17;;;;;;;;;;5065461;28;20186;-54
2023/04/29 03:36:50;;;;;;;20.90;16.80;;;;;;;;;;5071195;28;20188;-54
2023/04/29 03:39:16;;;;;;;25.10;18.47;;;;;;;;;;5066629;28;20845;-58
2023/04/29 03:41:42;;;;;;;20.83;16.57;;;;;;;;;;5069798;28;20231;-55
2023/04/29 03:44:08;;;;;;;26.77;17.80;;;;;;;;;;5066406;28;20539;-54
2023/04/29 03:46:34;;;;;;;26.43;17.30;;;;;;;;;;5069014;28;20196;-55
2023/04/29 03:49:01;;;;;;;26.30;18.27;;;;;;;;;;5067882;28;20183;-54
2023/04/29 03:51:27;;;;;;;24.70;16.63;;;;;;;;;;5066839;28;20242;-54
2023/04/29 03:53:55;;;;;;;24.40;18.03;;;;;;;;;;5053889;28;20222;-54
2023/04/29 03:56:21;;;;;;;22.27;16.60;;;;;;;;;;5067403;28;20262;-55
2023/04/29 03:58:48;;;;;;;21.53;16.83;;;;;;;;;;5067320;28;20188;-55
2023/04/29 04:01:14;;;;;;;22.57;18.03;;;;;;;;;;5066042;28;20200;-55
2023/04/29 04:03:42;;;;;;;22.80;17.40;;;;;;;;;;5067117;28;20180;-55
2023/04/29 04:06:08;;;;;;;22.03;17.07;;;;;;;;;;5070384;28;20180;-55
2023/04/29 04:08:34;;;;;;;21.93;17.03;;;;;;;;;;5053756;28;20195;-55
2023/04/29 04:11:03;;;;;;;21.57;16.00;;;;;;;;;;5069599;28;20192;-55
2023/04/29 04:13:29;;;;;;;19.80;14.80;;;;;;;;;;5066440;28;20267;-55
2023/04/29 04:15:55;;;;;;;19.17;15.93;;;;;;;;;;5067489;28;20188;-55
2023/04/29 04:18:22;;;;;;;19.13;15.27;;;;;;;;;;5067373;28;20902;-55
2023/04/29 04:20:48;;;;;;;19.37;13.97;;;;;;;;;;5069097;28;20218;-55
2023/04/29 04:23:14;;;;;;;19.27;14.20;;;;;;;;;;5068334;28;20200;-55
2023/04/29 04:25:46;;;;;;;21.47;15.70;;;;;;;;;;5068828;28;20734;-55
2023/04/29 04:28:12;;;;;;;22.57;16.67;;;;;;;;;;5064019;28;20562;-55
2023/04/29 04:30:39;;;;;;;20.33;14.27;;;;;;;;;;5067088;28;20532;-55
2023/04/29 04:33:05;;;;;;;20.10;15.70;;;;;;;;;;5063826;28;20525;-55
2023/04/29 04:35:31;;;;;;;18.80;14.00;;;;;;;;;;5068786;28;20256;-55
2023/04/29 04:37:58;;;;;;;17.50;13.50;;;;;;;;;;5067832;28;20270;-55
2023/04/29 04:40:24;;;;;;;22.17;14.13;;;;;;;;;;5065938;28;20192;-55
2023/04/29 04:42:50;;;;;;;16.83;13.67;;;;;;;;;;5060040;28;20574;-56
2023/04/29 04:45:17;;;;;;;17.30;13.33;;;;;;;;;;5065911;28;20549;-55
2023/04/29 04:47:43;;;;;;;20.10;13.93;;;;;;;;;;5049790;28;20598;-55
2023/04/29 04:50:10;;;;;;;18.00;12.63;;;;;;;;;;5049456;28;20230;-55
2023/04/29 04:52:36;;;;;;;19.30;14.30;;;;;;;;;;5050235;28;20180;-55
2023/04/29 04:55:02;;;;;;;18.77;14.30;;;;;;;;;;5067271;28;20694;-55
2023/04/29 04:57:28;;;;;;;20.40;14.70;;;;;;;;;;5066406;28;20180;-55
2023/04/29 04:59:54;;;;;;;20.10;14.00;;;;;;;;;;5064929;28;20227;-56
2023/04/29 05:02:21;;;;;;;19.50;15.53;;;;;;;;;;5065975;28;20294;-60
2023/04/29 05:04:47;;;;;;;17.70;13.30;;;;;;;;;;5065975;28;20188;-56
2023/04/29 05:07:14;;;;;;;16.40;13.47;;;;;;;;;;5065421;28;20179;-55
2023/04/29 05:09:40;;;;;;;18.73;14.03;;;;;;;;;;5066538;28;20703;-56
2023/04/29 05:12:07;;;;;;;19.20;14.07;;;;;;;;;;5065324;28;20216;-56
2023/04/29 05:14:33;;;;;;;19.13;13.33;;;;;;;;;;5061600;28;20180;-55
2023/04/29 05:16:59;;;;;;;20.30;15.13;;;;;;;;;;5067774;28;20184;-55
2023/04/29 05:19:26;;;;;;;18.33;14.13;;;;;;;;;;5067629;28;20650;-56
2023/04/29 05:21:52;;;;;;;18.50;14.20;;;;;;;;;;5066624;28;20204;-56
2023/04/29 05:24:18;;;;;;;18.80;14.27;;;;;;;;;;5062314;28;20224;-56
2023/04/29 05:26:45;;;;;;;20.10;14.00;;;;;;;;;;5064336;28;20177;-56
2023/04/29 05:29:11;;;;;;;19.37;14.47;;;;;;;;;;5058189;28;20184;-56
2023/04/29 05:31:37;;;;;;;18.73;14.27;;;;;;;;;;5066127;28;20185;-56
2023/04/29 05:34:04;;;;;;;17.47;13.97;;;;;;;;;;5057665;28;20176;-56
2023/04/29 05:36:30;;;;;;;19.90;14.27;;;;;;;;;;5067483;28;20193;-56
2023/04/29 05:38:57;;;;;;;16.33;12.80;;;;;;;;;;5065583;28;20590;-56
2023/04/29 05:41:27;;;;;;;16.67;13.53;;;;;;;;;;5044280;28;20744;-56
2023/04/29 05:43:53;;;;;;;16.33;12.77;;;;;;;;;;5063975;28;20271;-56
2023/04/29 05:46:21;;;;;;;16.93;14.13;;;;;;;;;;5065617;28;20207;-56
2023/04/29 05:48:48;;;;;;;18.87;13.13;;;;;;;;;;5063966;28;20650;-56
2023/04/29 05:51:14;;;;;;;16.13;14.33;;;;;;;;;;5063888;28;20546;-55
2023/04/29 05:53:40;;;;;;;18.73;13.97;;;;;;;;;;5063643;28;21377;-56
2023/04/29 05:56:07;;;;;;;19.13;15.20;;;;;;;;;;5071086;28;20208;-55
2023/04/29 05:58:34;;;;;;;17.03;13.47;;;;;;;;;;5069542;28;20287;-56
2023/04/29 06:01:00;;;;;;;18.63;13.33;;;;;;;;;;5066026;28;20177;-56
2023/04/29 06:03:26;;;;;;;16.40;13.80;;;;;;;;;;5068665;28;20169;-56
2023/04/29 06:05:53;;;;;;;18.33;14.40;;;;;;;;;;5071884;28;20189;-55
2023/04/29 06:08:19;;;;;;;17.67;14.23;;;;;;;;;;5070949;28;20640;-56
2023/04/29 06:10:46;;;;;;;16.33;13.17;;;;;;;;;;5070632;28;20231;-56
2023/04/29 06:13:12;;;;;;;15.20;12.67;;;;;;;;;;5067748;28;20212;-56
2023/04/29 06:15:38;;;;;;;16.77;12.67;;;;;;;;;;5067674;28;20547;-56
2023/04/29 06:18:05;;;;;;;15.97;12.77;;;;;;;;;;5061360;28;20195;-56
2023/04/29 06:20:34;;;;;;;15.57;13.73;;;;;;;;;;5060107;28;20212;-56
2023/04/29 06:23:00;;;;;;;16.77;13.90;;;;;;;;;;5072984;28;20315;-55
2023/04/29 06:25:26;;;;;;;14.83;12.83;;;;;;;;;;5064112;28;20666;-56
2023/04/29 06:27:53;;;;;;;17.73;13.00;;;;;;;;;;5074236;28;20538;-55
2023/04/29 06:30:20;;;;;;;17.00;12.63;;;;;;;;;;5047860;28;20185;-55
2023/04/29 06:32:48;;;;;;;17.60;14.20;;;;;;;;;;5068781;28;20571;-56
2023/04/29 06:35:14;;;;;;;17.73;14.03;;;;;;;;;;5057829;28;20181;-56
2023/04/29 06:37:40;;;;;;;17.10;13.10;;;;;;;;;;5065618;28;20211;-56
2023/04/29 06:40:07;;;;;;;16.77;13.73;;;;;;;;;;5067244;28;20769;-56
2023/04/29 06:42:33;;;;;;;18.00;13.97;;;;;;;;;;5066087;28;20246;-56
2023/04/29 06:45:00;;;;;;;16.13;14.37;;;;;;;;;;5066385;28;20223;-56
2023/04/29 06:47:27;;;;;;;15.90;13.73;;;;;;;;;;5065355;28;20172;-56
2023/04/29 06:49:53;;;;;;;16.70;13.87;;;;;;;;;;5067515;28;20220;-55
2023/04/29 06:52:19;;;;;;;17.03;12.33;;;;;;;;;;5063866;28;20193;-54
2023/04/29 06:54:46;;;;;;;14.20;12.37;;;;;;;;;;5063026;28;20195;-55
2023/04/29 06:57:12;;;;;;;17.17;13.07;;;;;;;;;;5049435;28;20173;-55
2023/04/29 06:59:38;;;;;;;14.00;12.50;;;;;;;;;;5062746;28;20177;-55
2023/04/29 07:02:04;;;;;;;20.37;13.67;;;;;;;;;;5065138;28;20660;-55
2023/04/29 07:04:30;;;;;;;15.43;12.77;;;;;;;;;;5067702;28;20180;-55
2023/04/29 07:06:58;;;;;;;15.63;12.87;;;;;;;;;;5068785;28;20185;-54
2023/04/29 07:09:26;;;;;;;16.43;13.50;;;;;;;;;;5069240;28;20746;-54
2023/04/29 07:11:53;;;;;;;16.20;13.87;;;;;;;;;;5059401;28;20299;-55
2023/04/29 07:14:21;;;;;;;14.93;12.00;;;;;;;;;;5060119;28;20298;-55
2023/04/29 07:16:47;;;;;;;14.67;12.20;;;;;;;;;;5045207;28;20694;-55
2023/04/29 07:19:14;;;;;;;16.23;13.67;;;;;;;;;;5068827;28;20581;-55
2023/04/29 07:21:40;;;;;;;19.10;13.00;;;;;;;;;;5068122;28;20574;-55
2023/04/29 07:24:07;;;;;;;16.73;13.03;;;;;;;;;;5068112;28;20211;-55
2023/04/29 07:26:33;;;;;;;15.73;13.07;;;;;;;;;;5050166;28;20172;-55
2023/04/29 07:29:00;;;;;;;17.37;12.90;;;;;;;;;;5064479;28;20173;-55
2023/04/29 07:31:26;;;;;;;13.33;11.93;;;;;;;;;;5061035;28;20207;-55
2023/04/29 07:33:54;;;;;;;15.50;12.97;;;;;;;;;;5065424;28;20173;-54
2023/04/29 07:36:23;;;;;;;15.07;12.90;;;;;;;;;;5068895;28;20192;-55
2023/04/29 07:38:49;;;;;;;18.83;12.50;;;;;;;;;;5069119;28;20375;-55
2023/04/29 07:41:15;;;;;;;14.90;12.07;;;;;;;;;;5066021;28;20192;-56
2023/04/29 07:43:41;;;;;;;16.80;12.47;;;;;;;;;;5040559;28;20196;-56
2023/04/29 07:46:07;;;;;;;14.60;11.43;;;;;;;;;;5064945;28;20571;-55
2023/04/29 07:48:40;;;;;;;15.20;12.00;;;;;;;;;;5063828;28;20181;-55
2023/04/29 07:51:07;;;;;;;15.17;12.93;;;;;;;;;;5069470;28;20892;-55
2023/04/29 07:53:33;;;;;;;15.57;13.10;;;;;;;;;;5067427;28;20172;-55
2023/04/29 07:56:04;;;;;;;14.73;12.07;;;;;;;;;;5062131;28;20540;-55
2023/04/29 07:58:31;;;;;;;15.30;12.93;;;;;;;;;;5057000;28;20235;-54
2023/04/29 08:00:57;;;;;;;17.93;14.10;;;;;;;;;;5062558;28;20814;-55
2023/04/29 08:03:24;;;;;;;15.77;13.43;;;;;;;;;;5060971;28;20600;-55
2023/04/29 08:05:52;;;;;;;17.73;13.33;;;;;;;;;;5064655;28;20181;-56
2023/04/29 08:08:18;;;;;;;19.03;13.60;;;;;;;;;;5067179;28;20172;-55
2023/04/29 08:10:44;;;;;;;18.63;13.40;;;;;;;;;;5066917;28;20176;-54
2023/04/29 08:13:10;;;;;;;17.90;14.83;;;;;;;;;;5067399;28;20201;-58
2023/04/29 08:15:37;;;;;;;16.50;14.43;;;;;;;;;;5064028;28;20292;-55
2023/04/29 08:18:03;;;;;;;16.17;14.13;;;;;;;;;;5057414;28;20811;-55
2023/04/29 08:20:30;;;;;;;18.10;14.53;;;;;;;;;;5059476;28;20652;-55
2023/04/29 08:22:58;;;;;;;25.00;17.65;;;;;;;;;;5059886;28;20520;-55
2023/04/29 08:25:25;;;;;;;25.60;18.10;;;;;;;;;;5059598;28;20243;-55
2023/04/29 08:27:52;;;;;;;17.53;14.90;;;;;;;;;;5063404;28;20164;-54
2023/04/29 08:30:18;;;;;;;21.87;16.07;;;;;;;;;;5062021;28;20173;-55
2023/04/29 08:32:44;;;;;;;17.80;14.83;;;;;;;;;;5061278;28;20177;-56
2023/04/29 08:35:10;;;;;;;22.07;16.17;;;;;;;;;;5062234;28;20226;-55
2023/04/29 08:37:37;;;;;;;21.97;16.10;;;;;;;;;;5064332;28;20587;-55
2023/04/29 08:40:03;;;;;;;20.83;16.43;;;;;;;;;;5067238;28;20208;-55
2023/04/29 08:42:32;;;;;;;29.20;16.53;;;;;;;;;;5065280;28;20200;-55
2023/04/29 08:44:59;;;;;;;20.40;17.50;;;;;;;;;;5046348;28;20176;-55
2023/04/29 08:47:26;;;;;;;22.07;17.33;;;;;;;;;;5057092;28;20176;-55
2023/04/29 08:49:53;;;;;;;21.87;16.87;;;;;;;;;;5064854;28;20255;-55
2023/04/29 08:52:19;;;;;;;20.13;15.70;;;;;;;;;;5052175;28;20185;-56
2023/04/29 08:54:46;;;;;;;23.67;18.10;;;;;;;;;;5055784;28;20177;-55
2023/04/29 08:57:12;;;;;;;22.57;18.10;;;;;;;;;;5061177;28;20177;-55
2023/04/29 08:59:38;;;;;;;28.67;18.30;;;;;;;;;;5060850;28;20177;-56
2023/04/29 09:02:06;;;;;;;24.70;18.13;;;;;;;;;;5067437;28;20211;-56
2023/04/29 09:04:46;;;;;;;25.97;19.03;;;;;;;;;;5063705;28;20176;-56
2023/04/29 09:07:13;;;;;;;27.07;18.43;;;;;;;;;;5060304;28;20275;-56
2023/04/29 09:09:39;;;;;;;26.47;18.97;;;;;;;;;;5063772;28;20176;-55
2023/04/29 09:12:06;;;;;;;22.77;18.23;;;;;;;;;;5061128;28;20212;-55
2023/04/29 09:14:33;;;;;;;25.80;18.93;;;;;;;;;;5055448;28;20195;-54
2023/04/29 09:16:59;;;;;;;23.07;17.60;;;;;;;;;;5060386;28;20180;-54
2023/04/29 09:19:35;;;;;;;26.10;19.30;;;;;;;;;;5060423;28;20620;-54
2023/04/29 09:22:02;;;;;;;26.30;20.07;;;;;;;;;;5062273;28;20293;-54
2023/04/29 09:24:29;;;;;;;22.43;18.17;;;;;;;;;;5062495;28;20314;-54
2023/04/29 09:26:55;;;;;;;23.30;18.77;;;;;;;;;;5059907;28;20207;-53
2023/04/29 09:29:21;;;;;;;18.93;16.93;;;;;;;;;;5061128;28;20187;-53
2023/04/29 09:31:48;;;;;;;21.60;18.13;;;;;;;;;;5062824;28;20689;-53
2023/04/29 09:34:15;;;;;;;20.88;18.17;;;;;;;;;;5059413;28;20539;-53
2023/04/29 09:36:41;;;;;;;21.07;17.57;;;;;;;;;;5064431;28;20167;-53
2023/04/29 09:39:11;;;;;;;20.90;17.00;;;;;;;;;;5057054;28;20482;-54
2023/04/29 09:42:04;;;;;;;20.73;16.97;;;;;;;;;;5049068;28;20199;-54
2023/04/29 09:44:31;;;;;;;20.07;17.03;;;;;;;;;;5041219;28;20185;-53
2023/04/29 09:47:01;;;;;;;22.50;17.70;;;;;;;;;;5049921;28;20515;-55
2023/04/29 09:49:28;;;;;;;23.23;18.57;;;;;;;;;;5060015;28;20195;-54
2023/04/29 09:51:55;;;;;;;22.00;17.00;;;;;;;;;;5060599;28;20172;-54
2023/04/29 09:54:22;;;;;;;17.97;16.07;;;;;;;;;;5059928;28;20272;-54
2023/04/29 09:56:49;;;;;;;24.97;18.70;;;;;;;;;;5059646;28;20181;-53
2023/04/29 09:59:16;;;;;;;19.63;16.83;;;;;;;;;;5064030;28;20180;-53
2023/04/29 10:01:42;;;;;;;22.13;18.37;;;;;;;;;;5054738;28;20196;-53
2023/04/29 10:04:11;;;;;;;19.13;16.93;;;;;;;;;;5053322;28;20607;-53
2023/04/29 10:06:39;;;;;;;21.27;16.77;;;;;;;;;;5060171;28;20696;-54
2023/04/29 10:09:07;;;;;;;24.40;16.47;;;;;;;;;;5052739;28;20675;-54
2023/04/29 10:11:33;;;;;;;23.33;16.93;;;;;;;;;;5056475;28;20295;-53
2023/04/29 10:13:59;;;;;;;20.67;15.70;;;;;;;;;;5058474;28;20586;-54
2023/04/29 10:16:29;;;;;;;21.23;16.27;;;;;;;;;;5056901;28;20250;-53
2023/04/29 10:18:56;;;;;;;21.87;17.33;;;;;;;;;;5034819;28;20184;-53
2023/04/29 10:21:32;;;;;;;19.23;15.97;;;;;;;;;;5055579;28;20204;-54
2023/04/29 10:23:59;;;;;;;21.10;16.00;;;;;;;;;;5056956;28;20217;-54
2023/04/29 10:26:28;;;;;;;21.03;16.93;;;;;;;;;;5064128;28;20172;-54
2023/04/29 10:28:59;;;;;;;20.73;16.07;;;;;;;;;;5060191;28;20174;-54
2023/04/29 10:31:26;;;;;;;20.40;16.17;;;;;;;;;;5059847;28;20176;-54
2023/04/29 10:33:55;;;;;;;19.27;16.13;;;;;;;;;;5056882;28;20714;-54
2023/04/29 10:36:22;;;;;;;20.13;15.93;;;;;;;;;;5060344;28;20582;-54
2023/04/29 10:38:52;;;;;;;19.40;16.10;;;;;;;;;;5059638;28;20204;-54
2023/04/29 10:41:41;;;;;;;23.47;17.57;;;;;;;;;;5039764;28;20271;-54
2023/04/29 10:44:07;;;;;;;18.67;15.43;;;;;;;;;;5058304;28;20188;-54
2023/04/29 10:46:34;;;;;;;17.10;15.30;;;;;;;;;;5062726;28;20275;-55
2023/04/29 10:49:05;;;;;;;18.03;14.90;;;;;;;;;;5042988;28;20183;-54
2023/04/29 10:51:39;;;;;;;17.40;15.33;;;;;;;;;;5044627;28;20615;-54
2023/04/29 10:54:15;;;;;;;20.13;16.27;;;;;;;;;;5064965;28;20176;-55
2023/04/29 10:56:52;;;;;;;20.30;16.70;;;;;;;;;;5049279;28;20777;-54
2023/04/29 10:59:21;;;;;;;19.43;16.33;;;;;;;;;;5065477;28;20180;-55
2023/04/29 11:01:51;;;;;;;19.93;15.43;;;;;;;;;;5065085;28;20200;-54
2023/04/29 11:04:19;;;;;;;18.33;15.33;;;;;;;;;;5062441;28;20172;-55
2023/04/29 11:06:51;;;;;;;19.33;15.13;;;;;;;;;;5061443;28;20196;-55
2023/04/29 11:09:25;;;;;;;17.80;15.17;;;;;;;;;;5049884;28;20186;-55
2023/04/29 11:11:59;;;;;;;19.77;15.87;;;;;;;;;;5048430;28;20594;-55
2023/04/29 11:14:31;;;;;;;20.33;16.07;;;;;;;;;;5054844;28;20181;-55
2023/04/29 11:16:59;;;;;;;17.60;15.37;;;;;;;;;;5060290;28;20610;-55
2023/04/29 11:19:31;;;;;;;16.87;15.07;;;;;;;;;;5055641;28;20185;-55
2023/04/29 11:22:08;;;;;;;19.53;15.33;;;;;;;;;;5062118;28;20200;-56
2023/04/29 11:24:35;;;;;;;18.57;14.90;;;;;;;;;;5062279;28;20232;-55
2023/04/29 11:27:05;;;;;;;17.10;15.10;;;;;;;;;;5056470;28;20251;-55
2023/04/29 11:29:32;;;;;;;17.27;14.60;;;;;;;;;;5068889;28;20538;-54
2023/04/29 11:32:02;;;;;;;21.53;15.47;;;;;;;;;;5061616;28;20303;-55
2023/04/29 11:34:28;;;;;;;17.47;15.23;;;;;;;;;;5061448;28;20653;-55
2023/04/29 11:36:55;;;;;;;17.27;14.93;;;;;;;;;;5063442;28;20228;-55
2023/04/29 11:39:24;;;;;;;18.63;15.60;;;;;;;;;;5062467;28;20204;-55
2023/04/29 11:41:51;;;;;;;19.67;16.00;;;;;;;;;;5067079;28;20204;-55
2023/04/29 11:44:21;;;;;;;19.30;15.07;;;;;;;;;;5067238;28;20180;-55
2023/04/29 11:46:50;;;;;;;17.10;15.30;;;;;;;;;;5063951;28;20173;-55
2023/04/29 11:49:17;;;;;;;18.67;16.00;;;;;;;;;;5061352;28;20741;-55
2023/04/29 11:51:43;;;;;;;22.00;15.77;;;;;;;;;;5062045;28;20315;-56
2023/04/29 11:54:09;;;;;;;18.17;15.87;;;;;;;;;;5065518;28;20180;-56
2023/04/29 11:56:37;;;;;;;18.80;16.20;;;;;;;;;;5066435;28;20176;-56
2023/04/29 11:59:06;;;;;;;20.07;17.03;;;;;;;;;;5064401;28;20259;-56
2023/04/29 12:01:33;;;;;;;17.30;15.13;;;;;;;;;;5063865;28;20176;-55
2023/04/29 12:04:01;;;;;;;18.57;15.97;;;;;;;;;;5063746;28;20172;-55
2023/04/29 12:06:28;;;;;;;20.03;16.00;;;;;;;;;;5064786;28;20215;-55
2023/04/29 12:08:55;;;;;;;16.53;14.30;;;;;;;;;;5065236;28;20512;-55
2023/04/29 12:11:24;;;;;;;18.67;16.63;;;;;;;;;;5064625;28;20196;-55
2023/04/29 12:13:51;;;;;;;17.80;15.90;;;;;;;;;;5067391;28;20168;-56
2023/04/29 12:16:17;;;;;;;18.83;14.67;;;;;;;;;;5064008;28;20554;-55
2023/04/29 12:18:44;;;;;;;17.67;15.60;;;;;;;;;;5060775;28;20542;-55
2023/04/29 12:21:10;;;;;;;16.87;14.80;;;;;;;;;;5062014;28;20619;-56
2023/04/29 12:23:36;;;;;;;19.30;14.40;;;;;;;;;;5068113;28;20231;-55
2023/04/29 12:26:03;;;;;;;17.37;15.40;;;;;;;;;;5060940;28;20275;-55
2023/04/29 12:28:30;;;;;;;16.93;15.23;;;;;;;;;;5066795;28;20236;-56
2023/04/29 12:30:58;;;;;;;17.73;15.07;;;;;;;;;;5065704;28;20502;-56
2023/04/29 12:33:26;;;;;;;18.83;16.60;;;;;;;;;;5061742;28;20211;-55
2023/04/29 12:35:54;;;;;;;17.03;15.23;;;;;;;;;;5064464;28;20184;-55
2023/04/29 12:38:27;;;;;;;15.90;14.20;;;;;;;;;;5064246;28;20184;-56
2023/04/29 12:41:06;;;;;;;16.10;14.40;;;;;;;;;;5061212;28;20197;-56
2023/04/29 12:43:33;;;;;;;15.40;13.80;;;;;;;;;;5054812;28;20291;-55
2023/04/29 12:46:02;;;;;;;15.83;14.17;;;;;;;;;;5059453;28;20165;-56
2023/04/29 12:48:31;;;;;;;16.97;15.20;;;;;;;;;;5063039;28;20175;-56
2023/04/29 12:50:58;;;;;;;15.87;14.27;;;;;;;;;;5064464;28;20169;-55
2023/04/29 12:53:26;;;;;;;16.37;14.67;;;;;;;;;;5063594;28;20583;-56
2023/04/29 12:55:52;;;;;;;15.63;14.00;;;;;;;;;;5062527;28;20176;-55
2023/04/29 12:58:22;;;;;;;15.97;14.33;;;;;;;;;;5063803;28;20666;-56
2023/04/29 13:00:48;;;;;;;15.47;13.87;;;;;;;;;;5062568;28;20177;-56
2023/04/29 13:03:15;;;;;;;16.27;14.63;;;;;;;;;;5064595;28;20605;-56
2023/04/29 13:05:42;;;;;;;16.57;13.30;;;;;;;;;;5044106;28;20168;-55
2023/04/29 13:08:08;;;;;;;15.00;13.47;;;;;;;;;;5060713;28;20169;-56
2023/04/29 13:10:35;;;;;;;15.13;13.60;;;;;;;;;;5062050;28;20183;-59
2023/04/29 13:13:01;;;;;;;15.13;13.53;;;;;;;;;;5064048;28;20419;-56
2023/04/29 13:15:29;;;;;;;14.90;13.37;;;;;;;;;;5059724;28;20810;-56
2023/04/29 13:17:57;;;;;;;15.10;13.50;;;;;;;;;;5064122;28;20188;-55
2023/04/29 13:20:23;;;;;;;14.67;13.17;;;;;;;;;;5064664;28;20223;-55
2023/04/29 13:22:50;;;;;;;12.73;11.43;;;;;;;;;;5061085;28;20196;-55
2023/04/29 13:25:16;;;;;;;14.90;12.60;;;;;;;;;;5064037;28;20265;-55
2023/04/29 13:27:44;;;;;;;14.33;12.90;;;;;;;;;;5061800;28;20539;-55
2023/04/29 13:30:10;;;;;;;13.33;11.87;;;;;;;;;;5064991;28;20404;-56
2023/04/29 13:32:38;;;;;;;14.70;11.77;;;;;;;;;;5057958;28;20181;-55
2023/04/29 13:35:06;;;;;;;12.53;11.27;;;;;;;;;;5056897;28;20584;-55
2023/04/29 13:37:33;;;;;;;13.17;11.80;;;;;;;;;;5053930;28;20183;-55
2023/04/29 13:40:01;;;;;;;12.37;11.17;;;;;;;;;;5064794;28;20507;-55
2023/04/29 13:42:27;;;;;;;13.23;10.83;;;;;;;;;;5063665;28;20261;-55
2023/04/29 13:44:56;;;;;;;12.57;10.67;;;;;;;;;;5061133;28;20200;-55
2023/04/29 13:47:23;;;;;;;12.43;10.40;;;;;;;;;;5058339;28;20559;-56
2023/04/29 13:49:49;;;;;;;10.97;9.87;;;;;;;;;;5057497;28;20173;-55
2023/04/29 13:52:15;;;;;;;12.50;11.17;;;;;;;;;;5064609;28;20191;-55
2023/04/29 13:57:45;;;;;;;12.23;11.03;;;;;;;;;;5059639;28;20176;-55
2023/04/29 14:00:12;;;;;;;11.53;10.40;;;;;;;;;;5064284;28;20184;-55
2023/04/29 14:02:39;;;;;;;11.23;10.13;;;;;;;;;;5063353;28;20207;-55
2023/04/29 14:05:05;;;;;;;11.70;9.73;;;;;;;;;;5053088;28;20181;-56
2023/04/29 14:07:32;;;;;;;11.67;9.50;;;;;;;;;;5062741;28;20210;-56
2023/04/29 14:09:59;;;;;;;10.90;9.77;;;;;;;;;;5047895;28;20632;-55
2023/04/29 14:12:25;;;;;;;10.63;9.63;;;;;;;;;;5063669;28;20243;-56
2023/04/29 14:14:52;;;;;;;10.80;9.30;;;;;;;;;;5068702;28;20211;-55
2023/04/29 14:17:18;;;;;;;11.97;9.93;;;;;;;;;;5061607;28;20186;-55
2023/04/29 14:19:45;;;;;;;10.90;9.80;;;;;;;;;;5066286;28;20181;-55